<?xml version="1.0" encoding="UTF-8"?><gpx creator="Wikiloc - http://www.wikiloc.com" version="1.1" xmlns="http://www.topografix.com/GPX/1/1" xmlns:xsi="http://www.w3.org/2001/XMLSchema-instance" xsi:schemaLocation="http://www.topografix.com/GPX/1/1 http://www.topografix.com/GPX/1/1/gpx.xsd"><wpt lat="39.203629" lon="-7.039851"><ele>288.0</ele><time>2014-06-26T07:21:01Z</time><name>Cortijo de Cabanillas</name><cmt></cmt><desc></desc></wpt><wpt lat="39.216094" lon="-7.005466"><ele>398.0</ele><time>2014-06-26T06:39:11Z</time><name>Fuente del Pilar</name><cmt></cmt><desc></desc></wpt><wpt lat="39.215898" lon="-7.059311"><ele>250.0</ele><time>2014-06-26T08:02:37Z</time><name>Río Guadarranque</name><cmt></cmt><desc></desc></wpt><wpt lat="39.211762" lon="-7.025441"><ele>307.0</ele><time>2014-06-26T07:08:13Z</time><name>Arroyo del Cubo</name><cmt></cmt><desc></desc></wpt><wpt lat="39.215903" lon="-7.000444"><ele>412.0</ele><time>2015-07-24T20:08:53Z</time><name>Alburquerque</name><cmt></cmt><desc></desc></wpt><wpt lat="39.223304" lon="-7.064364"><ele>268.0</ele><time>2015-07-24T20:09:53Z</time><name>Puertos del Guadarranque</name><cmt></cmt><desc></desc></wpt><wpt lat="39.217131" lon="-7.002144"><ele>483.0</ele><time>2015-07-24T20:13:09Z</time><name>Castillo de Luna</name><cmt></cmt><desc></desc></wpt><wpt lat="39.218979" lon="-7.000111"><ele>439.0</ele><time>2015-07-24T20:13:26Z</time><name>Oficina de Turismo</name><cmt></cmt><desc></desc></wpt><wpt lat="39.218693" lon="-7.052088"><ele>352.0</ele><time>2015-07-30T12:16:41Z</time><name>Los Picorros</name><cmt></cmt><desc></desc></wpt><trk><name>PR-BA 100 'Sierra de los Picorros' (Alburquerque)</name><cmt></cmt><desc></desc><trkseg><trkpt lat="39.215943" lon="-7.000414"><ele>413.0</ele><time>2015-01-01T10:00:37Z</time></trkpt><trkpt lat="39.215815" lon="-7.000673"><ele>413.0</ele><time>2015-01-01T10:01:15Z</time></trkpt><trkpt lat="39.215701" lon="-7.000843"><ele>410.4</ele><time>2015-01-01T10:01:53Z</time></trkpt><trkpt lat="39.215579" lon="-7.001028"><ele>408.8</ele><time>2015-01-01T10:02:30Z</time></trkpt><trkpt lat="39.215386" lon="-7.001388"><ele>406.3</ele><time>2015-01-01T10:03:08Z</time></trkpt><trkpt lat="39.215324" lon="-7.001721"><ele>405.2</ele><time>2015-01-01T10:03:46Z</time></trkpt><trkpt lat="39.215309" lon="-7.002105"><ele>404.3</ele><time>2015-01-01T10:04:23Z</time></trkpt><trkpt lat="39.215371" lon="-7.002628"><ele>405.7</ele><time>2015-01-01T10:05:01Z</time></trkpt><trkpt lat="39.215452" lon="-7.002910"><ele>406.2</ele><time>2015-01-01T10:05:39Z</time></trkpt><trkpt lat="39.215623" lon="-7.003282"><ele>408.1</ele><time>2015-01-01T10:06:17Z</time></trkpt><trkpt lat="39.215731" lon="-7.003944"><ele>404.5</ele><time>2015-01-01T10:06:54Z</time></trkpt><trkpt lat="39.216067" lon="-7.004963"><ele>401.2</ele><time>2015-01-01T10:07:32Z</time></trkpt><trkpt lat="39.216123" lon="-7.005171"><ele>400.6</ele><time>2015-01-01T10:08:10Z</time></trkpt><trkpt lat="39.216045" lon="-7.005699"><ele>394.1</ele><time>2015-01-01T10:08:47Z</time></trkpt><trkpt lat="39.216042" lon="-7.006037"><ele>390.7</ele><time>2015-01-01T10:09:25Z</time></trkpt><trkpt lat="39.215859" lon="-7.006816"><ele>381.2</ele><time>2015-01-01T10:10:03Z</time></trkpt><trkpt lat="39.215809" lon="-7.006973"><ele>380.6</ele><time>2015-01-01T10:10:40Z</time></trkpt><trkpt lat="39.215729" lon="-7.007346"><ele>379.6</ele><time>2015-01-01T10:11:18Z</time></trkpt><trkpt lat="39.215586" lon="-7.007562"><ele>377.7</ele><time>2015-01-01T10:11:56Z</time></trkpt><trkpt lat="39.215486" lon="-7.007779"><ele>377.3</ele><time>2015-01-01T10:12:34Z</time></trkpt><trkpt lat="39.215339" lon="-7.008030"><ele>375.0</ele><time>2015-01-01T10:13:11Z</time></trkpt><trkpt lat="39.215294" lon="-7.008230"><ele>373.6</ele><time>2015-01-01T10:13:49Z</time></trkpt><trkpt lat="39.215290" lon="-7.008454"><ele>373.2</ele><time>2015-01-01T10:14:27Z</time></trkpt><trkpt lat="39.215384" lon="-7.008755"><ele>374.7</ele><time>2015-01-01T10:15:04Z</time></trkpt><trkpt lat="39.215403" lon="-7.008995"><ele>374.6</ele><time>2015-01-01T10:15:42Z</time></trkpt><trkpt lat="39.215341" lon="-7.009454"><ele>372.6</ele><time>2015-01-01T10:16:20Z</time></trkpt><trkpt lat="39.215226" lon="-7.009932"><ele>366.5</ele><time>2015-01-01T10:16:57Z</time></trkpt><trkpt lat="39.215235" lon="-7.010094"><ele>365.9</ele><time>2015-01-01T10:17:35Z</time></trkpt><trkpt lat="39.215348" lon="-7.010522"><ele>366.4</ele><time>2015-01-01T10:18:13Z</time></trkpt><trkpt lat="39.215263" lon="-7.011043"><ele>360.4</ele><time>2015-01-01T10:18:51Z</time></trkpt><trkpt lat="39.215315" lon="-7.011444"><ele>358.1</ele><time>2015-01-01T10:19:28Z</time></trkpt><trkpt lat="39.215345" lon="-7.011770"><ele>355.6</ele><time>2015-01-01T10:20:06Z</time></trkpt><trkpt lat="39.215355" lon="-7.011997"><ele>353.1</ele><time>2015-01-01T10:20:44Z</time></trkpt><trkpt lat="39.215390" lon="-7.012224"><ele>350.2</ele><time>2015-01-01T10:21:21Z</time></trkpt><trkpt lat="39.215481" lon="-7.012541"><ele>346.9</ele><time>2015-01-01T10:21:59Z</time></trkpt><trkpt lat="39.215504" lon="-7.012758"><ele>345.6</ele><time>2015-01-01T10:22:37Z</time></trkpt><trkpt lat="39.215378" lon="-7.013156"><ele>343.9</ele><time>2015-01-01T10:23:14Z</time></trkpt><trkpt lat="39.215340" lon="-7.013435"><ele>344.7</ele><time>2015-01-01T10:23:52Z</time></trkpt><trkpt lat="39.215304" lon="-7.013613"><ele>345.3</ele><time>2015-01-01T10:24:30Z</time></trkpt><trkpt lat="39.215233" lon="-7.013883"><ele>345.5</ele><time>2015-01-01T10:25:08Z</time></trkpt><trkpt lat="39.214984" lon="-7.014838"><ele>346.2</ele><time>2015-01-01T10:25:45Z</time></trkpt><trkpt lat="39.214980" lon="-7.015536"><ele>345.8</ele><time>2015-01-01T10:26:23Z</time></trkpt><trkpt lat="39.214942" lon="-7.016021"><ele>346.5</ele><time>2015-01-01T10:27:01Z</time></trkpt><trkpt lat="39.214902" lon="-7.016459"><ele>347.3</ele><time>2015-01-01T10:27:38Z</time></trkpt><trkpt lat="39.214812" lon="-7.016867"><ele>348.3</ele><time>2015-01-01T10:28:16Z</time></trkpt><trkpt lat="39.214763" lon="-7.017146"><ele>348.0</ele><time>2015-01-01T10:28:54Z</time></trkpt><trkpt lat="39.214696" lon="-7.017440"><ele>348.2</ele><time>2015-01-01T10:29:31Z</time></trkpt><trkpt lat="39.214657" lon="-7.017638"><ele>348.5</ele><time>2015-01-01T10:30:09Z</time></trkpt><trkpt lat="39.214554" lon="-7.018077"><ele>348.6</ele><time>2015-01-01T10:30:47Z</time></trkpt><trkpt lat="39.214397" lon="-7.018529"><ele>347.5</ele><time>2015-01-01T10:31:25Z</time></trkpt><trkpt lat="39.214151" lon="-7.018912"><ele>344.8</ele><time>2015-01-01T10:32:02Z</time></trkpt><trkpt lat="39.214092" lon="-7.019148"><ele>343.5</ele><time>2015-01-01T10:32:40Z</time></trkpt><trkpt lat="39.213969" lon="-7.019719"><ele>335.5</ele><time>2015-01-01T10:33:18Z</time></trkpt><trkpt lat="39.213841" lon="-7.020172"><ele>332.0</ele><time>2015-01-01T10:33:55Z</time></trkpt><trkpt lat="39.213822" lon="-7.020558"><ele>330.8</ele><time>2015-01-01T10:34:33Z</time></trkpt><trkpt lat="39.213904" lon="-7.020896"><ele>329.8</ele><time>2015-01-01T10:35:11Z</time></trkpt><trkpt lat="39.213957" lon="-7.021318"><ele>327.3</ele><time>2015-01-01T10:35:48Z</time></trkpt><trkpt lat="39.213927" lon="-7.021595"><ele>324.8</ele><time>2015-01-01T10:36:26Z</time></trkpt><trkpt lat="39.213873" lon="-7.022006"><ele>320.2</ele><time>2015-01-01T10:37:04Z</time></trkpt><trkpt lat="39.213768" lon="-7.022454"><ele>315.4</ele><time>2015-01-01T10:37:42Z</time></trkpt><trkpt lat="39.213641" lon="-7.022834"><ele>313.8</ele><time>2015-01-01T10:38:19Z</time></trkpt><trkpt lat="39.213470" lon="-7.023224"><ele>313.3</ele><time>2015-01-01T10:38:57Z</time></trkpt><trkpt lat="39.213375" lon="-7.023477"><ele>313.1</ele><time>2015-01-01T10:39:35Z</time></trkpt><trkpt lat="39.213362" lon="-7.023781"><ele>313.6</ele><time>2015-01-01T10:40:12Z</time></trkpt><trkpt lat="39.213315" lon="-7.023930"><ele>314.1</ele><time>2015-01-01T10:40:50Z</time></trkpt><trkpt lat="39.213228" lon="-7.024064"><ele>314.0</ele><time>2015-01-01T10:41:28Z</time></trkpt><trkpt lat="39.213050" lon="-7.024225"><ele>313.8</ele><time>2015-01-01T10:42:05Z</time></trkpt><trkpt lat="39.212862" lon="-7.024302"><ele>312.5</ele><time>2015-01-01T10:42:43Z</time></trkpt><trkpt lat="39.212587" lon="-7.024391"><ele>310.6</ele><time>2015-01-01T10:43:21Z</time></trkpt><trkpt lat="39.212428" lon="-7.024456"><ele>310.1</ele><time>2015-01-01T10:43:59Z</time></trkpt><trkpt lat="39.212308" lon="-7.024830"><ele>310.6</ele><time>2015-01-01T10:44:36Z</time></trkpt><trkpt lat="39.212211" lon="-7.024983"><ele>309.9</ele><time>2015-01-01T10:45:14Z</time></trkpt><trkpt lat="39.212072" lon="-7.025262"><ele>309.8</ele><time>2015-01-01T10:45:52Z</time></trkpt><trkpt lat="39.211896" lon="-7.025513"><ele>308.1</ele><time>2015-01-01T10:46:29Z</time></trkpt><trkpt lat="39.211875" lon="-7.025717"><ele>307.7</ele><time>2015-01-01T10:47:07Z</time></trkpt><trkpt lat="39.211844" lon="-7.025785"><ele>307.2</ele><time>2015-01-01T10:47:45Z</time></trkpt><trkpt lat="39.211665" lon="-7.025986"><ele>304.5</ele><time>2015-01-01T10:48:22Z</time></trkpt><trkpt lat="39.211592" lon="-7.026023"><ele>304.3</ele><time>2015-01-01T10:49:00Z</time></trkpt><trkpt lat="39.211286" lon="-7.026347"><ele>305.5</ele><time>2015-01-01T10:49:38Z</time></trkpt><trkpt lat="39.211165" lon="-7.026500"><ele>305.9</ele><time>2015-01-01T10:50:16Z</time></trkpt><trkpt lat="39.211090" lon="-7.026584"><ele>305.9</ele><time>2015-01-01T10:50:53Z</time></trkpt><trkpt lat="39.210971" lon="-7.026744"><ele>306.3</ele><time>2015-01-01T10:51:31Z</time></trkpt><trkpt lat="39.210818" lon="-7.026860"><ele>305.2</ele><time>2015-01-01T10:52:09Z</time></trkpt><trkpt lat="39.210713" lon="-7.026954"><ele>304.3</ele><time>2015-01-01T10:52:46Z</time></trkpt><trkpt lat="39.210569" lon="-7.027088"><ele>303.2</ele><time>2015-01-01T10:53:24Z</time></trkpt><trkpt lat="39.210454" lon="-7.027190"><ele>302.3</ele><time>2015-01-01T10:54:02Z</time></trkpt><trkpt lat="39.210330" lon="-7.027326"><ele>300.7</ele><time>2015-01-01T10:54:39Z</time></trkpt><trkpt lat="39.210255" lon="-7.027427"><ele>299.8</ele><time>2015-01-01T10:55:17Z</time></trkpt><trkpt lat="39.209924" lon="-7.028713"><ele>298.4</ele><time>2015-01-01T10:55:55Z</time></trkpt><trkpt lat="39.209804" lon="-7.028912"><ele>297.3</ele><time>2015-01-01T10:56:33Z</time></trkpt><trkpt lat="39.209649" lon="-7.029146"><ele>297.5</ele><time>2015-01-01T10:57:10Z</time></trkpt><trkpt lat="39.209509" lon="-7.029408"><ele>300.3</ele><time>2015-01-01T10:57:48Z</time></trkpt><trkpt lat="39.209403" lon="-7.029686"><ele>302.9</ele><time>2015-01-01T10:58:26Z</time></trkpt><trkpt lat="39.209286" lon="-7.030054"><ele>306.1</ele><time>2015-01-01T10:59:03Z</time></trkpt><trkpt lat="39.209185" lon="-7.030462"><ele>310.9</ele><time>2015-01-01T10:59:41Z</time></trkpt><trkpt lat="39.209087" lon="-7.030694"><ele>314.4</ele><time>2015-01-01T11:00:19Z</time></trkpt><trkpt lat="39.208998" lon="-7.030774"><ele>315.8</ele><time>2015-01-01T11:00:56Z</time></trkpt><trkpt lat="39.208772" lon="-7.030830"><ele>316.6</ele><time>2015-01-01T11:01:34Z</time></trkpt><trkpt lat="39.208545" lon="-7.031019"><ele>315.4</ele><time>2015-01-01T11:02:12Z</time></trkpt><trkpt lat="39.208473" lon="-7.031385"><ele>316.0</ele><time>2015-01-01T11:02:50Z</time></trkpt><trkpt lat="39.208377" lon="-7.031831"><ele>314.6</ele><time>2015-01-01T11:03:27Z</time></trkpt><trkpt lat="39.207268" lon="-7.034479"><ele>295.0</ele><time>2015-01-01T11:04:05Z</time></trkpt><trkpt lat="39.207077" lon="-7.034881"><ele>292.6</ele><time>2015-01-01T11:04:43Z</time></trkpt><trkpt lat="39.206809" lon="-7.035108"><ele>292.2</ele><time>2015-01-01T11:05:20Z</time></trkpt><trkpt lat="39.203882" lon="-7.036867"><ele>276.7</ele><time>2015-01-01T11:05:58Z</time></trkpt><trkpt lat="39.203788" lon="-7.036979"><ele>277.2</ele><time>2015-01-01T11:06:36Z</time></trkpt><trkpt lat="39.203752" lon="-7.037131"><ele>278.0</ele><time>2015-01-01T11:07:13Z</time></trkpt><trkpt lat="39.203582" lon="-7.038439"><ele>278.5</ele><time>2015-01-01T11:07:51Z</time></trkpt><trkpt lat="39.203523" lon="-7.038795"><ele>281.2</ele><time>2015-01-01T11:08:29Z</time></trkpt><trkpt lat="39.203500" lon="-7.039049"><ele>283.6</ele><time>2015-01-01T11:09:07Z</time></trkpt><trkpt lat="39.203494" lon="-7.039228"><ele>285.5</ele><time>2015-01-01T11:09:44Z</time></trkpt><trkpt lat="39.203385" lon="-7.039298"><ele>287.8</ele><time>2015-01-01T11:10:22Z</time></trkpt><trkpt lat="39.203218" lon="-7.039381"><ele>288.2</ele><time>2015-01-01T11:11:00Z</time></trkpt><trkpt lat="39.203001" lon="-7.039505"><ele>286.4</ele><time>2015-01-01T11:11:37Z</time></trkpt><trkpt lat="39.202830" lon="-7.039522"><ele>284.0</ele><time>2015-01-01T11:12:15Z</time></trkpt><trkpt lat="39.202608" lon="-7.039456"><ele>279.4</ele><time>2015-01-01T11:12:53Z</time></trkpt><trkpt lat="39.201662" lon="-7.039687"><ele>267.9</ele><time>2015-01-01T11:13:30Z</time></trkpt><trkpt lat="39.200959" lon="-7.039883"><ele>265.5</ele><time>2015-01-01T11:14:08Z</time></trkpt><trkpt lat="39.200310" lon="-7.039951"><ele>259.6</ele><time>2015-01-01T11:14:46Z</time></trkpt><trkpt lat="39.199908" lon="-7.039907"><ele>257.7</ele><time>2015-01-01T11:15:24Z</time></trkpt><trkpt lat="39.199766" lon="-7.039894"><ele>257.2</ele><time>2015-01-01T11:16:01Z</time></trkpt><trkpt lat="39.199746" lon="-7.039955"><ele>257.1</ele><time>2015-01-01T11:16:39Z</time></trkpt><trkpt lat="39.199805" lon="-7.040477"><ele>255.8</ele><time>2015-01-01T11:17:17Z</time></trkpt><trkpt lat="39.199672" lon="-7.041373"><ele>252.0</ele><time>2015-01-01T11:17:54Z</time></trkpt><trkpt lat="39.199593" lon="-7.041602"><ele>251.6</ele><time>2015-01-01T11:18:32Z</time></trkpt><trkpt lat="39.199480" lon="-7.041935"><ele>251.9</ele><time>2015-01-01T11:19:10Z</time></trkpt><trkpt lat="39.199498" lon="-7.042049"><ele>251.5</ele><time>2015-01-01T11:19:47Z</time></trkpt><trkpt lat="39.199830" lon="-7.042350"><ele>250.7</ele><time>2015-01-01T11:20:25Z</time></trkpt><trkpt lat="39.200376" lon="-7.042824"><ele>250.7</ele><time>2015-01-01T11:21:03Z</time></trkpt><trkpt lat="39.200568" lon="-7.042975"><ele>249.7</ele><time>2015-01-01T11:21:41Z</time></trkpt><trkpt lat="39.201411" lon="-7.043695"><ele>253.2</ele><time>2015-01-01T11:22:18Z</time></trkpt><trkpt lat="39.201708" lon="-7.043809"><ele>255.2</ele><time>2015-01-01T11:22:56Z</time></trkpt><trkpt lat="39.202198" lon="-7.044011"><ele>257.4</ele><time>2015-01-01T11:23:34Z</time></trkpt><trkpt lat="39.202475" lon="-7.044123"><ele>258.8</ele><time>2015-01-01T11:24:11Z</time></trkpt><trkpt lat="39.203275" lon="-7.044190"><ele>260.8</ele><time>2015-01-01T11:24:49Z</time></trkpt><trkpt lat="39.203400" lon="-7.044207"><ele>261.2</ele><time>2015-01-01T11:25:27Z</time></trkpt><trkpt lat="39.203464" lon="-7.044261"><ele>261.5</ele><time>2015-01-01T11:26:04Z</time></trkpt><trkpt lat="39.203899" lon="-7.044671"><ele>260.3</ele><time>2015-01-01T11:26:42Z</time></trkpt><trkpt lat="39.204139" lon="-7.044922"><ele>256.6</ele><time>2015-01-01T11:27:20Z</time></trkpt><trkpt lat="39.204281" lon="-7.045076"><ele>256.1</ele><time>2015-01-01T11:27:58Z</time></trkpt><trkpt lat="39.204853" lon="-7.045710"><ele>258.6</ele><time>2015-01-01T11:28:35Z</time></trkpt><trkpt lat="39.205087" lon="-7.045952"><ele>260.3</ele><time>2015-01-01T11:29:13Z</time></trkpt><trkpt lat="39.205336" lon="-7.046228"><ele>260.2</ele><time>2015-01-01T11:29:51Z</time></trkpt><trkpt lat="39.205874" lon="-7.046826"><ele>266.2</ele><time>2015-01-01T11:30:28Z</time></trkpt><trkpt lat="39.206230" lon="-7.047204"><ele>268.8</ele><time>2015-01-01T11:31:06Z</time></trkpt><trkpt lat="39.206713" lon="-7.047311"><ele>270.0</ele><time>2015-01-01T11:31:44Z</time></trkpt><trkpt lat="39.206949" lon="-7.047372"><ele>270.0</ele><time>2015-01-01T11:32:21Z</time></trkpt><trkpt lat="39.207100" lon="-7.047402"><ele>271.1</ele><time>2015-01-01T11:32:59Z</time></trkpt><trkpt lat="39.207335" lon="-7.047457"><ele>272.7</ele><time>2015-01-01T11:33:37Z</time></trkpt><trkpt lat="39.207601" lon="-7.047517"><ele>274.0</ele><time>2015-01-01T11:34:15Z</time></trkpt><trkpt lat="39.207937" lon="-7.047591"><ele>274.2</ele><time>2015-01-01T11:34:52Z</time></trkpt><trkpt lat="39.208126" lon="-7.047624"><ele>274.3</ele><time>2015-01-01T11:35:30Z</time></trkpt><trkpt lat="39.208352" lon="-7.047921"><ele>273.6</ele><time>2015-01-01T11:36:08Z</time></trkpt><trkpt lat="39.208764" lon="-7.048294"><ele>272.8</ele><time>2015-01-01T11:36:45Z</time></trkpt><trkpt lat="39.209004" lon="-7.048502"><ele>273.2</ele><time>2015-01-01T11:37:23Z</time></trkpt><trkpt lat="39.209098" lon="-7.048612"><ele>273.5</ele><time>2015-01-01T11:38:01Z</time></trkpt><trkpt lat="39.209267" lon="-7.048953"><ele>274.2</ele><time>2015-01-01T11:38:38Z</time></trkpt><trkpt lat="39.209359" lon="-7.049265"><ele>274.2</ele><time>2015-01-01T11:39:16Z</time></trkpt><trkpt lat="39.209450" lon="-7.049558"><ele>273.2</ele><time>2015-01-01T11:39:54Z</time></trkpt><trkpt lat="39.209593" lon="-7.049984"><ele>272.6</ele><time>2015-01-01T11:40:32Z</time></trkpt><trkpt lat="39.209744" lon="-7.050303"><ele>270.8</ele><time>2015-01-01T11:41:09Z</time></trkpt><trkpt lat="39.209846" lon="-7.050465"><ele>270.0</ele><time>2015-01-01T11:41:47Z</time></trkpt><trkpt lat="39.209938" lon="-7.050604"><ele>269.7</ele><time>2015-01-01T11:42:25Z</time></trkpt><trkpt lat="39.210056" lon="-7.050786"><ele>270.4</ele><time>2015-01-01T11:43:02Z</time></trkpt><trkpt lat="39.210213" lon="-7.050919"><ele>271.5</ele><time>2015-01-01T11:43:40Z</time></trkpt><trkpt lat="39.210479" lon="-7.051145"><ele>272.1</ele><time>2015-01-01T11:44:18Z</time></trkpt><trkpt lat="39.210777" lon="-7.051623"><ele>270.4</ele><time>2015-01-01T11:44:55Z</time></trkpt><trkpt lat="39.211073" lon="-7.052194"><ele>268.9</ele><time>2015-01-01T11:45:33Z</time></trkpt><trkpt lat="39.211512" lon="-7.052755"><ele>268.0</ele><time>2015-01-01T11:46:11Z</time></trkpt><trkpt lat="39.211617" lon="-7.052945"><ele>268.1</ele><time>2015-01-01T11:46:49Z</time></trkpt><trkpt lat="39.211846" lon="-7.053793"><ele>271.7</ele><time>2015-01-01T11:47:26Z</time></trkpt><trkpt lat="39.212092" lon="-7.055067"><ele>272.5</ele><time>2015-01-01T11:48:04Z</time></trkpt><trkpt lat="39.212124" lon="-7.055269"><ele>271.1</ele><time>2015-01-01T11:48:42Z</time></trkpt><trkpt lat="39.212200" lon="-7.055413"><ele>270.0</ele><time>2015-01-01T11:49:19Z</time></trkpt><trkpt lat="39.212284" lon="-7.055517"><ele>269.0</ele><time>2015-01-01T11:49:57Z</time></trkpt><trkpt lat="39.212399" lon="-7.055657"><ele>267.6</ele><time>2015-01-01T11:50:35Z</time></trkpt><trkpt lat="39.212588" lon="-7.055899"><ele>264.7</ele><time>2015-01-01T11:51:12Z</time></trkpt><trkpt lat="39.212764" lon="-7.056083"><ele>262.2</ele><time>2015-01-01T11:51:50Z</time></trkpt><trkpt lat="39.213018" lon="-7.056333"><ele>261.0</ele><time>2015-01-01T11:52:28Z</time></trkpt><trkpt lat="39.213264" lon="-7.056578"><ele>258.1</ele><time>2015-01-01T11:53:06Z</time></trkpt><trkpt lat="39.213514" lon="-7.056753"><ele>257.2</ele><time>2015-01-01T11:53:43Z</time></trkpt><trkpt lat="39.213668" lon="-7.056799"><ele>257.8</ele><time>2015-01-01T11:54:21Z</time></trkpt><trkpt lat="39.213896" lon="-7.056859"><ele>259.0</ele><time>2015-01-01T11:54:59Z</time></trkpt><trkpt lat="39.214160" lon="-7.056892"><ele>260.2</ele><time>2015-01-01T11:55:36Z</time></trkpt><trkpt lat="39.214587" lon="-7.056894"><ele>260.4</ele><time>2015-01-01T11:56:14Z</time></trkpt><trkpt lat="39.214849" lon="-7.056943"><ele>260.5</ele><time>2015-01-01T11:56:52Z</time></trkpt><trkpt lat="39.214984" lon="-7.056991"><ele>260.3</ele><time>2015-01-01T11:57:29Z</time></trkpt><trkpt lat="39.215293" lon="-7.057322"><ele>257.8</ele><time>2015-01-01T11:58:07Z</time></trkpt><trkpt lat="39.215361" lon="-7.057416"><ele>257.4</ele><time>2015-01-01T11:58:45Z</time></trkpt><trkpt lat="39.215564" lon="-7.057740"><ele>257.3</ele><time>2015-01-01T11:59:23Z</time></trkpt><trkpt lat="39.215784" lon="-7.058188"><ele>255.3</ele><time>2015-01-01T12:00:00Z</time></trkpt><trkpt lat="39.215913" lon="-7.058521"><ele>253.8</ele><time>2015-01-01T12:00:38Z</time></trkpt><trkpt lat="39.216002" lon="-7.058961"><ele>252.6</ele><time>2015-01-01T12:01:16Z</time></trkpt><trkpt lat="39.216178" lon="-7.059638"><ele>252.5</ele><time>2015-01-01T12:01:53Z</time></trkpt><trkpt lat="39.216229" lon="-7.059916"><ele>251.7</ele><time>2015-01-01T12:02:31Z</time></trkpt><trkpt lat="39.216346" lon="-7.060313"><ele>251.4</ele><time>2015-01-01T12:03:09Z</time></trkpt><trkpt lat="39.216431" lon="-7.060542"><ele>251.5</ele><time>2015-01-01T12:03:46Z</time></trkpt><trkpt lat="39.216517" lon="-7.060710"><ele>252.1</ele><time>2015-01-01T12:04:24Z</time></trkpt><trkpt lat="39.216795" lon="-7.061360"><ele>253.4</ele><time>2015-01-01T12:05:02Z</time></trkpt><trkpt lat="39.216945" lon="-7.061654"><ele>255.0</ele><time>2015-01-01T12:05:40Z</time></trkpt><trkpt lat="39.217038" lon="-7.061849"><ele>256.7</ele><time>2015-01-01T12:06:17Z</time></trkpt><trkpt lat="39.217196" lon="-7.062131"><ele>259.3</ele><time>2015-01-01T12:06:55Z</time></trkpt><trkpt lat="39.217371" lon="-7.062369"><ele>261.6</ele><time>2015-01-01T12:07:33Z</time></trkpt><trkpt lat="39.217602" lon="-7.062658"><ele>264.9</ele><time>2015-01-01T12:08:10Z</time></trkpt><trkpt lat="39.217812" lon="-7.062878"><ele>267.5</ele><time>2015-01-01T12:08:48Z</time></trkpt><trkpt lat="39.218152" lon="-7.063144"><ele>270.7</ele><time>2015-01-01T12:09:26Z</time></trkpt><trkpt lat="39.218316" lon="-7.063334"><ele>271.9</ele><time>2015-01-01T12:10:03Z</time></trkpt><trkpt lat="39.218521" lon="-7.063366"><ele>273.4</ele><time>2015-01-01T12:10:41Z</time></trkpt><trkpt lat="39.218821" lon="-7.063517"><ele>274.3</ele><time>2015-01-01T12:11:19Z</time></trkpt><trkpt lat="39.219231" lon="-7.063736"><ele>273.4</ele><time>2015-01-01T12:11:57Z</time></trkpt><trkpt lat="39.219818" lon="-7.064034"><ele>274.2</ele><time>2015-01-01T12:12:34Z</time></trkpt><trkpt lat="39.220014" lon="-7.064130"><ele>275.2</ele><time>2015-01-01T12:13:12Z</time></trkpt><trkpt lat="39.220268" lon="-7.064253"><ele>275.7</ele><time>2015-01-01T12:13:50Z</time></trkpt><trkpt lat="39.220525" lon="-7.064388"><ele>275.6</ele><time>2015-01-01T12:14:27Z</time></trkpt><trkpt lat="39.220634" lon="-7.064472"><ele>274.8</ele><time>2015-01-01T12:15:05Z</time></trkpt><trkpt lat="39.220863" lon="-7.064691"><ele>273.2</ele><time>2015-01-01T12:15:43Z</time></trkpt><trkpt lat="39.221068" lon="-7.064895"><ele>271.2</ele><time>2015-01-01T12:16:20Z</time></trkpt><trkpt lat="39.221416" lon="-7.065132"><ele>267.1</ele><time>2015-01-01T12:16:58Z</time></trkpt><trkpt lat="39.221852" lon="-7.065290"><ele>264.1</ele><time>2015-01-01T12:17:36Z</time></trkpt><trkpt lat="39.222089" lon="-7.065298"><ele>263.1</ele><time>2015-01-01T12:18:14Z</time></trkpt><trkpt lat="39.222359" lon="-7.065226"><ele>263.0</ele><time>2015-01-01T12:18:51Z</time></trkpt><trkpt lat="39.222549" lon="-7.065119"><ele>263.2</ele><time>2015-01-01T12:19:29Z</time></trkpt><trkpt lat="39.222822" lon="-7.064853"><ele>265.2</ele><time>2015-01-01T12:20:07Z</time></trkpt><trkpt lat="39.223118" lon="-7.064542"><ele>266.1</ele><time>2015-01-01T12:20:44Z</time></trkpt><trkpt lat="39.223240" lon="-7.064444"><ele>266.7</ele><time>2015-01-01T12:21:22Z</time></trkpt><trkpt lat="39.223679" lon="-7.064185"><ele>265.3</ele><time>2015-01-01T12:22:00Z</time></trkpt><trkpt lat="39.223940" lon="-7.064152"><ele>262.7</ele><time>2015-01-01T12:22:37Z</time></trkpt><trkpt lat="39.224134" lon="-7.064284"><ele>261.3</ele><time>2015-01-01T12:23:15Z</time></trkpt><trkpt lat="39.224379" lon="-7.064528"><ele>260.0</ele><time>2015-01-01T12:23:53Z</time></trkpt><trkpt lat="39.224551" lon="-7.064717"><ele>260.0</ele><time>2015-01-01T12:24:31Z</time></trkpt><trkpt lat="39.224796" lon="-7.064948"><ele>260.5</ele><time>2015-01-01T12:25:08Z</time></trkpt><trkpt lat="39.224984" lon="-7.065175"><ele>262.4</ele><time>2015-01-01T12:25:46Z</time></trkpt><trkpt lat="39.225129" lon="-7.065365"><ele>264.0</ele><time>2015-01-01T12:26:24Z</time></trkpt><trkpt lat="39.225305" lon="-7.065618"><ele>264.4</ele><time>2015-01-01T12:27:01Z</time></trkpt><trkpt lat="39.225412" lon="-7.065753"><ele>263.4</ele><time>2015-01-01T12:27:39Z</time></trkpt><trkpt lat="39.225594" lon="-7.066087"><ele>259.9</ele><time>2015-01-01T12:28:17Z</time></trkpt><trkpt lat="39.225768" lon="-7.066410"><ele>258.4</ele><time>2015-01-01T12:28:54Z</time></trkpt><trkpt lat="39.225865" lon="-7.066564"><ele>258.1</ele><time>2015-01-01T12:29:32Z</time></trkpt><trkpt lat="39.225944" lon="-7.066669"><ele>258.2</ele><time>2015-01-01T12:30:10Z</time></trkpt><trkpt lat="39.226039" lon="-7.066708"><ele>259.1</ele><time>2015-01-01T12:30:48Z</time></trkpt><trkpt lat="39.226157" lon="-7.066693"><ele>260.5</ele><time>2015-01-01T12:31:25Z</time></trkpt><trkpt lat="39.226450" lon="-7.066639"><ele>264.0</ele><time>2015-01-01T12:32:03Z</time></trkpt><trkpt lat="39.226631" lon="-7.066577"><ele>264.1</ele><time>2015-01-01T12:32:41Z</time></trkpt><trkpt lat="39.226825" lon="-7.066421"><ele>265.1</ele><time>2015-01-01T12:33:18Z</time></trkpt><trkpt lat="39.226966" lon="-7.066255"><ele>266.4</ele><time>2015-01-01T12:33:56Z</time></trkpt><trkpt lat="39.227129" lon="-7.066048"><ele>267.4</ele><time>2015-01-01T12:34:34Z</time></trkpt><trkpt lat="39.227315" lon="-7.065835"><ele>269.0</ele><time>2015-01-01T12:35:11Z</time></trkpt><trkpt lat="39.227505" lon="-7.065589"><ele>270.8</ele><time>2015-01-01T12:35:49Z</time></trkpt><trkpt lat="39.227592" lon="-7.065482"><ele>272.9</ele><time>2015-01-01T12:36:27Z</time></trkpt><trkpt lat="39.227921" lon="-7.065140"><ele>274.5</ele><time>2015-01-01T12:37:05Z</time></trkpt><trkpt lat="39.228532" lon="-7.064802"><ele>273.8</ele><time>2015-01-01T12:37:42Z</time></trkpt><trkpt lat="39.228696" lon="-7.064616"><ele>272.9</ele><time>2015-01-01T12:38:20Z</time></trkpt><trkpt lat="39.229056" lon="-7.064038"><ele>271.3</ele><time>2015-01-01T12:38:58Z</time></trkpt><trkpt lat="39.229212" lon="-7.063660"><ele>269.0</ele><time>2015-01-01T12:39:35Z</time></trkpt><trkpt lat="39.229443" lon="-7.063248"><ele>269.6</ele><time>2015-01-01T12:40:13Z</time></trkpt><trkpt lat="39.229660" lon="-7.062851"><ele>273.2</ele><time>2015-01-01T12:40:51Z</time></trkpt><trkpt lat="39.229803" lon="-7.062670"><ele>275.8</ele><time>2015-01-01T12:41:28Z</time></trkpt><trkpt lat="39.229918" lon="-7.062518"><ele>278.0</ele><time>2015-01-01T12:42:06Z</time></trkpt><trkpt lat="39.230022" lon="-7.062435"><ele>279.5</ele><time>2015-01-01T12:42:44Z</time></trkpt><trkpt lat="39.230262" lon="-7.061945"><ele>282.8</ele><time>2015-01-01T12:43:22Z</time></trkpt><trkpt lat="39.230360" lon="-7.061867"><ele>283.4</ele><time>2015-01-01T12:43:59Z</time></trkpt><trkpt lat="39.230443" lon="-7.061848"><ele>283.6</ele><time>2015-01-01T12:44:37Z</time></trkpt><trkpt lat="39.230753" lon="-7.061958"><ele>282.9</ele><time>2015-01-01T12:45:15Z</time></trkpt><trkpt lat="39.230996" lon="-7.062073"><ele>284.3</ele><time>2015-01-01T12:45:52Z</time></trkpt><trkpt lat="39.231431" lon="-7.062469"><ele>282.3</ele><time>2015-01-01T12:46:30Z</time></trkpt><trkpt lat="39.231678" lon="-7.062567"><ele>281.0</ele><time>2015-01-01T12:47:08Z</time></trkpt><trkpt lat="39.231916" lon="-7.062514"><ele>280.9</ele><time>2015-01-01T12:47:45Z</time></trkpt><trkpt lat="39.232143" lon="-7.062510"><ele>281.6</ele><time>2015-01-01T12:48:23Z</time></trkpt><trkpt lat="39.232269" lon="-7.062389"><ele>283.9</ele><time>2015-01-01T12:49:01Z</time></trkpt><trkpt lat="39.232533" lon="-7.062129"><ele>287.8</ele><time>2015-01-01T12:49:39Z</time></trkpt><trkpt lat="39.232705" lon="-7.062011"><ele>288.7</ele><time>2015-01-01T12:50:16Z</time></trkpt><trkpt lat="39.232831" lon="-7.061901"><ele>289.2</ele><time>2015-01-01T12:50:54Z</time></trkpt><trkpt lat="39.232967" lon="-7.061807"><ele>289.5</ele><time>2015-01-01T12:51:32Z</time></trkpt><trkpt lat="39.233106" lon="-7.061786"><ele>289.6</ele><time>2015-01-01T12:52:09Z</time></trkpt><trkpt lat="39.233438" lon="-7.061724"><ele>289.0</ele><time>2015-01-01T12:52:47Z</time></trkpt><trkpt lat="39.233782" lon="-7.061608"><ele>289.2</ele><time>2015-01-01T12:53:25Z</time></trkpt><trkpt lat="39.233929" lon="-7.061552"><ele>290.1</ele><time>2015-01-01T12:54:02Z</time></trkpt><trkpt lat="39.234027" lon="-7.061479"><ele>291.3</ele><time>2015-01-01T12:54:40Z</time></trkpt><trkpt lat="39.234121" lon="-7.061460"><ele>292.2</ele><time>2015-01-01T12:55:18Z</time></trkpt><trkpt lat="39.234454" lon="-7.061534"><ele>293.0</ele><time>2015-01-01T12:55:56Z</time></trkpt><trkpt lat="39.234658" lon="-7.061480"><ele>294.1</ele><time>2015-01-01T12:56:33Z</time></trkpt><trkpt lat="39.234775" lon="-7.061352"><ele>295.4</ele><time>2015-01-01T12:57:11Z</time></trkpt><trkpt lat="39.234865" lon="-7.061190"><ele>296.8</ele><time>2015-01-01T12:57:49Z</time></trkpt><trkpt lat="39.235062" lon="-7.061005"><ele>298.0</ele><time>2015-01-01T12:58:26Z</time></trkpt><trkpt lat="39.235199" lon="-7.060914"><ele>298.1</ele><time>2015-01-01T12:59:04Z</time></trkpt><trkpt lat="39.235420" lon="-7.060873"><ele>297.9</ele><time>2015-01-01T12:59:42Z</time></trkpt><trkpt lat="39.235607" lon="-7.060889"><ele>298.0</ele><time>2015-01-01T13:00:19Z</time></trkpt><trkpt lat="39.235739" lon="-7.061065"><ele>297.3</ele><time>2015-01-01T13:00:57Z</time></trkpt><trkpt lat="39.235884" lon="-7.061243"><ele>297.1</ele><time>2015-01-01T13:01:35Z</time></trkpt><trkpt lat="39.236098" lon="-7.061405"><ele>298.7</ele><time>2015-01-01T13:02:13Z</time></trkpt><trkpt lat="39.236238" lon="-7.061430"><ele>299.5</ele><time>2015-01-01T13:02:50Z</time></trkpt><trkpt lat="39.236848" lon="-7.061370"><ele>300.1</ele><time>2015-01-01T13:03:28Z</time></trkpt><trkpt lat="39.237721" lon="-7.061219"><ele>306.6</ele><time>2015-01-01T13:04:06Z</time></trkpt><trkpt lat="39.237874" lon="-7.061220"><ele>306.9</ele><time>2015-01-01T13:04:43Z</time></trkpt><trkpt lat="39.238295" lon="-7.061437"><ele>302.7</ele><time>2015-01-01T13:05:21Z</time></trkpt><trkpt lat="39.238422" lon="-7.061509"><ele>301.7</ele><time>2015-01-01T13:05:59Z</time></trkpt><trkpt lat="39.238552" lon="-7.061488"><ele>301.7</ele><time>2015-01-01T13:06:36Z</time></trkpt><trkpt lat="39.238674" lon="-7.061457"><ele>302.0</ele><time>2015-01-01T13:07:14Z</time></trkpt><trkpt lat="39.238738" lon="-7.061425"><ele>302.3</ele><time>2015-01-01T13:07:52Z</time></trkpt><trkpt lat="39.238630" lon="-7.061153"><ele>302.1</ele><time>2015-01-01T13:08:30Z</time></trkpt><trkpt lat="39.238297" lon="-7.060235"><ele>306.7</ele><time>2015-01-01T13:09:07Z</time></trkpt><trkpt lat="39.238246" lon="-7.059993"><ele>306.4</ele><time>2015-01-01T13:09:45Z</time></trkpt><trkpt lat="39.238259" lon="-7.059695"><ele>307.8</ele><time>2015-01-01T13:10:23Z</time></trkpt><trkpt lat="39.238283" lon="-7.059404"><ele>308.6</ele><time>2015-01-01T13:11:00Z</time></trkpt><trkpt lat="39.238320" lon="-7.059192"><ele>309.9</ele><time>2015-01-01T13:11:38Z</time></trkpt><trkpt lat="39.238331" lon="-7.058879"><ele>313.2</ele><time>2015-01-01T13:12:16Z</time></trkpt><trkpt lat="39.238203" lon="-7.057977"><ele>321.1</ele><time>2015-01-01T13:12:53Z</time></trkpt><trkpt lat="39.238241" lon="-7.057268"><ele>322.5</ele><time>2015-01-01T13:13:31Z</time></trkpt><trkpt lat="39.238255" lon="-7.056874"><ele>324.1</ele><time>2015-01-01T13:14:09Z</time></trkpt><trkpt lat="39.238237" lon="-7.056616"><ele>326.1</ele><time>2015-01-01T13:14:47Z</time></trkpt><trkpt lat="39.238266" lon="-7.056459"><ele>327.0</ele><time>2015-01-01T13:15:24Z</time></trkpt><trkpt lat="39.238331" lon="-7.056312"><ele>327.6</ele><time>2015-01-01T13:16:02Z</time></trkpt><trkpt lat="39.238490" lon="-7.056105"><ele>327.9</ele><time>2015-01-01T13:16:40Z</time></trkpt><trkpt lat="39.238771" lon="-7.055663"><ele>327.5</ele><time>2015-01-01T13:17:17Z</time></trkpt><trkpt lat="39.239007" lon="-7.055234"><ele>328.3</ele><time>2015-01-01T13:17:55Z</time></trkpt><trkpt lat="39.239052" lon="-7.055001"><ele>329.4</ele><time>2015-01-01T13:18:33Z</time></trkpt><trkpt lat="39.239047" lon="-7.054482"><ele>331.8</ele><time>2015-01-01T13:19:10Z</time></trkpt><trkpt lat="39.238994" lon="-7.054110"><ele>335.1</ele><time>2015-01-01T13:19:48Z</time></trkpt><trkpt lat="39.238880" lon="-7.053557"><ele>340.4</ele><time>2015-01-01T13:20:26Z</time></trkpt><trkpt lat="39.238865" lon="-7.053346"><ele>341.9</ele><time>2015-01-01T13:21:04Z</time></trkpt><trkpt lat="39.238876" lon="-7.053088"><ele>344.6</ele><time>2015-01-01T13:21:41Z</time></trkpt><trkpt lat="39.238884" lon="-7.052847"><ele>345.0</ele><time>2015-01-01T13:22:19Z</time></trkpt><trkpt lat="39.238719" lon="-7.052325"><ele>346.9</ele><time>2015-01-01T13:22:57Z</time></trkpt><trkpt lat="39.238422" lon="-7.051534"><ele>351.2</ele><time>2015-01-01T13:23:34Z</time></trkpt><trkpt lat="39.238167" lon="-7.050544"><ele>350.3</ele><time>2015-01-01T13:24:12Z</time></trkpt><trkpt lat="39.238000" lon="-7.050140"><ele>353.7</ele><time>2015-01-01T13:24:50Z</time></trkpt><trkpt lat="39.237892" lon="-7.049697"><ele>355.7</ele><time>2015-01-01T13:25:27Z</time></trkpt><trkpt lat="39.237686" lon="-7.048455"><ele>358.3</ele><time>2015-01-01T13:26:05Z</time></trkpt><trkpt lat="39.237510" lon="-7.047940"><ele>358.9</ele><time>2015-01-01T13:26:43Z</time></trkpt><trkpt lat="39.237439" lon="-7.047668"><ele>359.2</ele><time>2015-01-01T13:27:21Z</time></trkpt><trkpt lat="39.237333" lon="-7.046827"><ele>359.8</ele><time>2015-01-01T13:27:58Z</time></trkpt><trkpt lat="39.237183" lon="-7.046193"><ele>358.6</ele><time>2015-01-01T13:28:36Z</time></trkpt><trkpt lat="39.237014" lon="-7.045838"><ele>359.3</ele><time>2015-01-01T13:29:14Z</time></trkpt><trkpt lat="39.236937" lon="-7.045541"><ele>360.0</ele><time>2015-01-01T13:29:51Z</time></trkpt><trkpt lat="39.236858" lon="-7.044863"><ele>360.0</ele><time>2015-01-01T13:30:29Z</time></trkpt><trkpt lat="39.236689" lon="-7.044198"><ele>362.8</ele><time>2015-01-01T13:31:07Z</time></trkpt><trkpt lat="39.236656" lon="-7.042893"><ele>362.2</ele><time>2015-01-01T13:31:44Z</time></trkpt><trkpt lat="39.236589" lon="-7.042252"><ele>365.2</ele><time>2015-01-01T13:32:22Z</time></trkpt><trkpt lat="39.236353" lon="-7.041302"><ele>362.5</ele><time>2015-01-01T13:33:00Z</time></trkpt><trkpt lat="39.235950" lon="-7.040087"><ele>363.3</ele><time>2015-01-01T13:33:38Z</time></trkpt><trkpt lat="39.235778" lon="-7.039194"><ele>362.2</ele><time>2015-01-01T13:34:15Z</time></trkpt><trkpt lat="39.235430" lon="-7.038342"><ele>367.4</ele><time>2015-01-01T13:34:53Z</time></trkpt><trkpt lat="39.235146" lon="-7.037599"><ele>368.8</ele><time>2015-01-01T13:35:31Z</time></trkpt><trkpt lat="39.234873" lon="-7.037208"><ele>368.5</ele><time>2015-01-01T13:36:08Z</time></trkpt><trkpt lat="39.234614" lon="-7.036685"><ele>369.4</ele><time>2015-01-01T13:36:46Z</time></trkpt><trkpt lat="39.234369" lon="-7.036211"><ele>371.2</ele><time>2015-01-01T13:37:24Z</time></trkpt><trkpt lat="39.233991" lon="-7.035555"><ele>376.9</ele><time>2015-01-01T13:38:01Z</time></trkpt><trkpt lat="39.233865" lon="-7.035385"><ele>378.8</ele><time>2015-01-01T13:38:39Z</time></trkpt><trkpt lat="39.233526" lon="-7.035227"><ele>381.3</ele><time>2015-01-01T13:39:17Z</time></trkpt><trkpt lat="39.233449" lon="-7.035330"><ele>381.7</ele><time>2015-01-01T13:39:55Z</time></trkpt><trkpt lat="39.233222" lon="-7.035374"><ele>382.5</ele><time>2015-01-01T13:40:32Z</time></trkpt><trkpt lat="39.232863" lon="-7.035729"><ele>384.6</ele><time>2015-01-01T13:41:10Z</time></trkpt><trkpt lat="39.232524" lon="-7.036025"><ele>384.1</ele><time>2015-01-01T13:41:48Z</time></trkpt><trkpt lat="39.232361" lon="-7.036366"><ele>384.9</ele><time>2015-01-01T13:42:25Z</time></trkpt><trkpt lat="39.232140" lon="-7.036522"><ele>384.5</ele><time>2015-01-01T13:43:03Z</time></trkpt><trkpt lat="39.231605" lon="-7.036853"><ele>385.3</ele><time>2015-01-01T13:43:41Z</time></trkpt><trkpt lat="39.231235" lon="-7.036941"><ele>384.4</ele><time>2015-01-01T13:44:18Z</time></trkpt><trkpt lat="39.230948" lon="-7.037285"><ele>385.2</ele><time>2015-01-01T13:44:56Z</time></trkpt><trkpt lat="39.230800" lon="-7.037290"><ele>385.0</ele><time>2015-01-01T13:45:34Z</time></trkpt><trkpt lat="39.230685" lon="-7.037293"><ele>384.2</ele><time>2015-01-01T13:46:12Z</time></trkpt><trkpt lat="39.230534" lon="-7.037459"><ele>383.6</ele><time>2015-01-01T13:46:49Z</time></trkpt><trkpt lat="39.230289" lon="-7.037333"><ele>381.1</ele><time>2015-01-01T13:47:27Z</time></trkpt><trkpt lat="39.229931" lon="-7.037598"><ele>379.3</ele><time>2015-01-01T13:48:05Z</time></trkpt><trkpt lat="39.229059" lon="-7.038288"><ele>383.7</ele><time>2015-01-01T13:48:42Z</time></trkpt><trkpt lat="39.228830" lon="-7.038442"><ele>388.2</ele><time>2015-01-01T13:49:20Z</time></trkpt><trkpt lat="39.228691" lon="-7.038620"><ele>391.5</ele><time>2015-01-01T13:49:58Z</time></trkpt><trkpt lat="39.228343" lon="-7.038693"><ele>391.1</ele><time>2015-01-01T13:50:35Z</time></trkpt><trkpt lat="39.228315" lon="-7.038349"><ele>391.9</ele><time>2015-01-01T13:51:13Z</time></trkpt><trkpt lat="39.228340" lon="-7.037972"><ele>392.3</ele><time>2015-01-01T13:51:51Z</time></trkpt><trkpt lat="39.228292" lon="-7.037794"><ele>391.5</ele><time>2015-01-01T13:52:29Z</time></trkpt><trkpt lat="39.228289" lon="-7.037632"><ele>389.9</ele><time>2015-01-01T13:53:06Z</time></trkpt><trkpt lat="39.227883" lon="-7.037041"><ele>387.3</ele><time>2015-01-01T13:53:44Z</time></trkpt><trkpt lat="39.227727" lon="-7.036900"><ele>386.6</ele><time>2015-01-01T13:54:22Z</time></trkpt><trkpt lat="39.227455" lon="-7.035686"><ele>380.2</ele><time>2015-01-01T13:54:59Z</time></trkpt><trkpt lat="39.227282" lon="-7.035077"><ele>379.7</ele><time>2015-01-01T13:55:37Z</time></trkpt><trkpt lat="39.227271" lon="-7.034654"><ele>379.1</ele><time>2015-01-01T13:56:15Z</time></trkpt><trkpt lat="39.227183" lon="-7.034523"><ele>377.6</ele><time>2015-01-01T13:56:52Z</time></trkpt><trkpt lat="39.227157" lon="-7.034315"><ele>375.1</ele><time>2015-01-01T13:57:30Z</time></trkpt><trkpt lat="39.226707" lon="-7.034073"><ele>371.0</ele><time>2015-01-01T13:58:08Z</time></trkpt><trkpt lat="39.226217" lon="-7.033334"><ele>360.1</ele><time>2015-01-01T13:58:46Z</time></trkpt><trkpt lat="39.225919" lon="-7.033186"><ele>356.4</ele><time>2015-01-01T13:59:23Z</time></trkpt><trkpt lat="39.225802" lon="-7.032920"><ele>355.9</ele><time>2015-01-01T14:00:01Z</time></trkpt><trkpt lat="39.225753" lon="-7.032660"><ele>358.7</ele><time>2015-01-01T14:00:39Z</time></trkpt><trkpt lat="39.226026" lon="-7.032424"><ele>361.4</ele><time>2015-01-01T14:01:16Z</time></trkpt><trkpt lat="39.226204" lon="-7.031791"><ele>370.4</ele><time>2015-01-01T14:01:54Z</time></trkpt><trkpt lat="39.226735" lon="-7.031226"><ele>371.6</ele><time>2015-01-01T14:02:32Z</time></trkpt><trkpt lat="39.227004" lon="-7.030876"><ele>368.6</ele><time>2015-01-01T14:03:09Z</time></trkpt><trkpt lat="39.227252" lon="-7.030470"><ele>371.1</ele><time>2015-01-01T14:03:47Z</time></trkpt><trkpt lat="39.227334" lon="-7.030126"><ele>374.1</ele><time>2015-01-01T14:04:25Z</time></trkpt><trkpt lat="39.227339" lon="-7.029755"><ele>375.6</ele><time>2015-01-01T14:05:03Z</time></trkpt><trkpt lat="39.227313" lon="-7.029466"><ele>379.1</ele><time>2015-01-01T14:05:40Z</time></trkpt><trkpt lat="39.227570" lon="-7.029334"><ele>378.0</ele><time>2015-01-01T14:06:18Z</time></trkpt><trkpt lat="39.227526" lon="-7.029095"><ele>380.1</ele><time>2015-01-01T14:06:56Z</time></trkpt><trkpt lat="39.227588" lon="-7.028905"><ele>380.6</ele><time>2015-01-01T14:07:33Z</time></trkpt><trkpt lat="39.227749" lon="-7.027800"><ele>379.2</ele><time>2015-01-01T14:08:11Z</time></trkpt><trkpt lat="39.227726" lon="-7.027743"><ele>379.5</ele><time>2015-01-01T14:08:49Z</time></trkpt><trkpt lat="39.227456" lon="-7.027611"><ele>381.3</ele><time>2015-01-01T14:09:26Z</time></trkpt><trkpt lat="39.227268" lon="-7.027579"><ele>382.4</ele><time>2015-01-01T14:10:04Z</time></trkpt><trkpt lat="39.226849" lon="-7.027469"><ele>389.1</ele><time>2015-01-01T14:10:42Z</time></trkpt><trkpt lat="39.226612" lon="-7.027537"><ele>391.7</ele><time>2015-01-01T14:11:20Z</time></trkpt><trkpt lat="39.226330" lon="-7.027669"><ele>396.9</ele><time>2015-01-01T14:11:57Z</time></trkpt><trkpt lat="39.226232" lon="-7.027429"><ele>398.1</ele><time>2015-01-01T14:12:35Z</time></trkpt><trkpt lat="39.226038" lon="-7.027049"><ele>400.0</ele><time>2015-01-01T14:13:13Z</time></trkpt><trkpt lat="39.225802" lon="-7.026688"><ele>402.5</ele><time>2015-01-01T14:13:50Z</time></trkpt><trkpt lat="39.225671" lon="-7.026396"><ele>404.3</ele><time>2015-01-01T14:14:28Z</time></trkpt><trkpt lat="39.225409" lon="-7.025914"><ele>403.0</ele><time>2015-01-01T14:15:06Z</time></trkpt><trkpt lat="39.225207" lon="-7.025581"><ele>400.7</ele><time>2015-01-01T14:15:43Z</time></trkpt><trkpt lat="39.225044" lon="-7.025261"><ele>402.5</ele><time>2015-01-01T14:16:21Z</time></trkpt><trkpt lat="39.224856" lon="-7.024927"><ele>401.8</ele><time>2015-01-01T14:16:59Z</time></trkpt><trkpt lat="39.224683" lon="-7.024561"><ele>399.5</ele><time>2015-01-01T14:17:37Z</time></trkpt><trkpt lat="39.224556" lon="-7.024235"><ele>402.9</ele><time>2015-01-01T14:18:14Z</time></trkpt><trkpt lat="39.224452" lon="-7.023317"><ele>408.9</ele><time>2015-01-01T14:18:52Z</time></trkpt><trkpt lat="39.224604" lon="-7.022699"><ele>408.9</ele><time>2015-01-01T14:19:30Z</time></trkpt><trkpt lat="39.224671" lon="-7.022251"><ele>407.3</ele><time>2015-01-01T14:20:07Z</time></trkpt><trkpt lat="39.224697" lon="-7.021807"><ele>406.5</ele><time>2015-01-01T14:20:45Z</time></trkpt><trkpt lat="39.224766" lon="-7.021626"><ele>406.8</ele><time>2015-01-01T14:21:23Z</time></trkpt><trkpt lat="39.225209" lon="-7.021315"><ele>404.8</ele><time>2015-01-01T14:22:00Z</time></trkpt><trkpt lat="39.225406" lon="-7.021005"><ele>403.9</ele><time>2015-01-01T14:22:38Z</time></trkpt><trkpt lat="39.225488" lon="-7.020525"><ele>402.5</ele><time>2015-01-01T14:23:16Z</time></trkpt><trkpt lat="39.225468" lon="-7.020242"><ele>402.9</ele><time>2015-01-01T14:23:54Z</time></trkpt><trkpt lat="39.225282" lon="-7.019659"><ele>405.0</ele><time>2015-01-01T14:24:31Z</time></trkpt><trkpt lat="39.225199" lon="-7.019262"><ele>405.6</ele><time>2015-01-01T14:25:09Z</time></trkpt><trkpt lat="39.225159" lon="-7.018774"><ele>406.7</ele><time>2015-01-01T14:25:47Z</time></trkpt><trkpt lat="39.224993" lon="-7.017883"><ele>405.8</ele><time>2015-01-01T14:26:24Z</time></trkpt><trkpt lat="39.225455" lon="-7.017645"><ele>402.4</ele><time>2015-01-01T14:27:02Z</time></trkpt><trkpt lat="39.225163" lon="-7.016483"><ele>400.4</ele><time>2015-01-01T14:27:40Z</time></trkpt><trkpt lat="39.224981" lon="-7.016407"><ele>402.2</ele><time>2015-01-01T14:28:17Z</time></trkpt><trkpt lat="39.224831" lon="-7.016284"><ele>403.8</ele><time>2015-01-01T14:28:55Z</time></trkpt><trkpt lat="39.224621" lon="-7.016000"><ele>405.8</ele><time>2015-01-01T14:29:33Z</time></trkpt><trkpt lat="39.224341" lon="-7.015685"><ele>408.2</ele><time>2015-01-01T14:30:11Z</time></trkpt><trkpt lat="39.224101" lon="-7.015375"><ele>409.2</ele><time>2015-01-01T14:30:48Z</time></trkpt><trkpt lat="39.224095" lon="-7.015285"><ele>408.6</ele><time>2015-01-01T14:31:26Z</time></trkpt><trkpt lat="39.224033" lon="-7.015200"><ele>409.0</ele><time>2015-01-01T14:32:04Z</time></trkpt><trkpt lat="39.224085" lon="-7.015126"><ele>408.6</ele><time>2015-01-01T14:32:41Z</time></trkpt><trkpt lat="39.224025" lon="-7.015041"><ele>409.0</ele><time>2015-01-01T14:33:19Z</time></trkpt><trkpt lat="39.223398" lon="-7.012575"><ele>412.2</ele><time>2015-01-01T14:33:57Z</time></trkpt><trkpt lat="39.223268" lon="-7.011909"><ele>410.6</ele><time>2015-01-01T14:34:34Z</time></trkpt><trkpt lat="39.223213" lon="-7.011823"><ele>409.9</ele><time>2015-01-01T14:35:12Z</time></trkpt><trkpt lat="39.223137" lon="-7.011828"><ele>409.6</ele><time>2015-01-01T14:35:50Z</time></trkpt><trkpt lat="39.222957" lon="-7.011008"><ele>409.5</ele><time>2015-01-01T14:36:28Z</time></trkpt><trkpt lat="39.222915" lon="-7.010581"><ele>409.1</ele><time>2015-01-01T14:37:05Z</time></trkpt><trkpt lat="39.222937" lon="-7.009805"><ele>410.9</ele><time>2015-01-01T14:37:43Z</time></trkpt><trkpt lat="39.222853" lon="-7.009438"><ele>412.9</ele><time>2015-01-01T14:38:21Z</time></trkpt><trkpt lat="39.222724" lon="-7.009019"><ele>414.0</ele><time>2015-01-01T14:38:58Z</time></trkpt><trkpt lat="39.222610" lon="-7.008631"><ele>413.4</ele><time>2015-01-01T14:39:36Z</time></trkpt><trkpt lat="39.222154" lon="-7.007298"><ele>411.2</ele><time>2015-01-01T14:40:14Z</time></trkpt><trkpt lat="39.221742" lon="-7.006137"><ele>413.7</ele><time>2015-01-01T14:40:51Z</time></trkpt><trkpt lat="39.221564" lon="-7.005592"><ele>416.7</ele><time>2015-01-01T14:41:29Z</time></trkpt><trkpt lat="39.221457" lon="-7.005232"><ele>420.3</ele><time>2015-01-01T14:42:07Z</time></trkpt><trkpt lat="39.221166" lon="-7.004225"><ele>423.4</ele><time>2015-01-01T14:42:45Z</time></trkpt><trkpt lat="39.220947" lon="-7.003852"><ele>427.7</ele><time>2015-01-01T14:43:22Z</time></trkpt><trkpt lat="39.220908" lon="-7.003811"><ele>427.9</ele><time>2015-01-01T14:44:00Z</time></trkpt><trkpt lat="39.220720" lon="-7.003768"><ele>428.8</ele><time>2015-01-01T14:44:38Z</time></trkpt><trkpt lat="39.220717" lon="-7.003616"><ele>429.4</ele><time>2015-01-01T14:45:15Z</time></trkpt><trkpt lat="39.220642" lon="-7.003067"><ele>428.0</ele><time>2015-01-01T14:45:53Z</time></trkpt><trkpt lat="39.220309" lon="-7.001773"><ele>430.9</ele><time>2015-01-01T14:46:31Z</time></trkpt><trkpt lat="39.220261" lon="-7.001706"><ele>431.4</ele><time>2015-01-01T14:47:08Z</time></trkpt><trkpt lat="39.220212" lon="-7.001731"><ele>432.2</ele><time>2015-01-01T14:47:46Z</time></trkpt><trkpt lat="39.220144" lon="-7.001826"><ele>433.8</ele><time>2015-01-01T14:48:24Z</time></trkpt><trkpt lat="39.220048" lon="-7.001922"><ele>436.0</ele><time>2015-01-01T14:49:02Z</time></trkpt><trkpt lat="39.219982" lon="-7.001985"><ele>437.0</ele><time>2015-01-01T14:49:39Z</time></trkpt><trkpt lat="39.219877" lon="-7.001893"><ele>437.6</ele><time>2015-01-01T14:50:17Z</time></trkpt><trkpt lat="39.219700" lon="-7.001573"><ele>438.0</ele><time>2015-01-01T14:50:55Z</time></trkpt><trkpt lat="39.219542" lon="-7.001273"><ele>439.4</ele><time>2015-01-01T14:51:32Z</time></trkpt><trkpt lat="39.219424" lon="-7.001091"><ele>440.2</ele><time>2015-01-01T14:52:10Z</time></trkpt><trkpt lat="39.219308" lon="-7.001017"><ele>441.4</ele><time>2015-01-01T14:52:48Z</time></trkpt><trkpt lat="39.219164" lon="-7.000653"><ele>440.1</ele><time>2015-01-01T14:53:25Z</time></trkpt><trkpt lat="39.219054" lon="-7.000435"><ele>439.8</ele><time>2015-01-01T14:54:03Z</time></trkpt><trkpt lat="39.218878" lon="-7.000167"><ele>440.4</ele><time>2015-01-01T14:54:41Z</time></trkpt><trkpt lat="39.218840" lon="-7.000071"><ele>440.2</ele><time>2015-01-01T14:55:19Z</time></trkpt><trkpt lat="39.218826" lon="-7.000045"><ele>440.2</ele><time>2015-01-01T14:55:56Z</time></trkpt><trkpt lat="39.218853" lon="-6.999919"><ele>439.5</ele><time>2015-01-01T14:56:34Z</time></trkpt><trkpt lat="39.218803" lon="-6.999693"><ele>440.1</ele><time>2015-01-01T14:57:12Z</time></trkpt><trkpt lat="39.218402" lon="-6.999574"><ele>444.4</ele><time>2015-01-01T14:57:49Z</time></trkpt><trkpt lat="39.218380" lon="-6.999459"><ele>444.5</ele><time>2015-01-01T14:58:27Z</time></trkpt><trkpt lat="39.218162" lon="-6.999210"><ele>444.1</ele><time>2015-01-01T14:59:05Z</time></trkpt><trkpt lat="39.217750" lon="-6.999083"><ele>439.4</ele><time>2015-01-01T14:59:42Z</time></trkpt><trkpt lat="39.217298" lon="-6.999128"><ele>431.1</ele><time>2015-01-01T15:00:20Z</time></trkpt><trkpt lat="39.216876" lon="-6.999256"><ele>424.7</ele><time>2015-01-01T15:00:58Z</time></trkpt><trkpt lat="39.216565" lon="-6.999331"><ele>419.5</ele><time>2015-01-01T15:01:36Z</time></trkpt><trkpt lat="39.216300" lon="-6.999422"><ele>415.6</ele><time>2015-01-01T15:02:13Z</time></trkpt><trkpt lat="39.216243" lon="-6.999644"><ele>415.1</ele><time>2015-01-01T15:02:51Z</time></trkpt><trkpt lat="39.216245" lon="-6.999879"><ele>416.2</ele><time>2015-01-01T15:03:29Z</time></trkpt><trkpt lat="39.216212" lon="-7.000059"><ele>416.8</ele><time>2015-01-01T15:04:06Z</time></trkpt><trkpt lat="39.216059" lon="-7.000443"><ele>413.0</ele><time>2015-01-01T15:04:44Z</time></trkpt><trkpt lat="39.215960" lon="-7.000400"><ele>413.0</ele><time>2015-01-01T15:05:22Z</time></trkpt></trkseg></trk></gpx>